createdAt,value
2022-11-06T00:02:01.070Z,5.38
2022-11-06T00:04:30.320Z,5.40
2022-11-06T00:06:57.284Z,5.34
2022-11-06T00:09:24.887Z,5.41
2022-11-06T00:11:52.851Z,5.34
2022-11-06T00:14:20.851Z,5.41
2022-11-06T00:16:49.918Z,5.37
2022-11-06T00:19:17.750Z,5.48
2022-11-06T00:21:45.996Z,5.42
2022-11-06T00:24:15.485Z,5.37
2022-11-06T00:26:43.559Z,5.41
2022-11-06T00:29:14.172Z,5.39
2022-11-06T00:31:41.894Z,5.38
2022-11-06T00:34:11.917Z,5.31
2022-11-06T00:36:39.476Z,5.28
2022-11-06T00:39:07.099Z,5.21
2022-11-06T00:41:34.688Z,5.18
2022-11-06T00:44:03.610Z,5.17
2022-11-06T00:46:31.462Z,5.21
2022-11-06T00:48:59.789Z,5.14
2022-11-06T00:51:30.882Z,5.14
2022-11-06T00:53:59.714Z,5.02
2022-11-06T00:56:27.917Z,5.12
2022-11-06T00:58:55.792Z,5.16
2022-11-06T01:01:25.021Z,5.21
2022-11-06T01:03:54.702Z,5.19
2022-11-06T01:06:24.580Z,4.99
2022-11-06T01:08:53.853Z,5.00
2022-11-06T01:11:23.471Z,4.95
2022-11-06T01:13:52.693Z,4.98
2022-11-06T01:16:20.789Z,4.86
2022-11-06T01:18:49.203Z,4.85
2022-11-06T01:21:18.506Z,4.85
2022-11-06T01:23:46.223Z,4.88
2022-11-06T01:26:28.831Z,4.87
2022-11-06T01:29:03.912Z,4.84
2022-11-06T01:31:33.785Z,4.86
2022-11-06T01:34:02.617Z,4.78
2022-11-06T01:36:30.781Z,4.77
2022-11-06T01:39:00.231Z,4.70
2022-11-06T01:41:31.751Z,4.65
2022-11-06T01:44:01.062Z,4.59
2022-11-06T01:46:30.842Z,4.62
2022-11-06T01:49:00.612Z,4.66
2022-11-06T01:51:29.741Z,4.74
2022-11-06T01:53:57.873Z,4.63
2022-11-06T01:56:25.744Z,4.63
2022-11-06T01:58:55.580Z,4.61
2022-11-06T02:01:23.985Z,4.50
2022-11-06T02:03:56.385Z,4.38
2022-11-06T02:06:24.602Z,4.39
2022-11-06T02:08:52.581Z,4.37
2022-11-06T02:11:20.452Z,4.39
2022-11-06T02:13:55.195Z,4.39
2022-11-06T02:16:26.182Z,4.41
2022-11-06T02:19:03.570Z,4.37
2022-11-06T02:21:49.872Z,4.37
2022-11-06T02:24:35.036Z,4.40
2022-11-06T02:27:10.271Z,4.31
2022-11-06T02:29:43.713Z,4.39
2022-11-06T02:32:13.209Z,4.29
2022-11-06T02:34:41.528Z,4.33
2022-11-06T02:37:12.117Z,4.37
2022-11-06T02:39:42.097Z,4.38
2022-11-06T02:42:12.215Z,4.39
2022-11-06T02:44:40.700Z,4.39
2022-11-06T02:47:11.021Z,4.43
2022-11-06T02:49:40.302Z,4.40
2022-11-06T02:52:11.368Z,4.39
2022-11-06T02:54:42.324Z,4.37
2022-11-06T02:57:15.629Z,4.35
2022-11-06T02:59:48.547Z,4.37
2022-11-06T03:02:19.653Z,4.37
2022-11-06T03:04:51.514Z,4.27
2022-11-06T03:07:21.301Z,4.33
2022-11-06T03:09:49.819Z,4.31
2022-11-06T03:12:22.400Z,4.31
2022-11-06T03:14:55.511Z,4.24
2022-11-06T03:17:27.319Z,4.34
2022-11-06T03:19:57.279Z,4.36
2022-11-06T03:22:28.054Z,4.44
2022-11-06T03:25:00.470Z,4.39
2022-11-06T03:27:34.809Z,4.36
2022-11-06T03:30:04.803Z,4.43
2022-11-06T03:32:35.219Z,4.35
2022-11-06T03:35:07.582Z,4.47
2022-11-06T03:37:38.320Z,4.45
2022-11-06T03:40:09.627Z,4.40
2022-11-06T03:42:39.399Z,4.48
2022-11-06T03:45:10.858Z,4.48
2022-11-06T03:47:40.299Z,4.42
2022-11-06T03:50:11.928Z,4.41
2022-11-06T03:52:43.319Z,4.44
2022-11-06T03:55:16.013Z,4.36
2022-11-06T03:57:48.929Z,4.22
2022-11-06T04:00:20.354Z,4.24
2022-11-06T04:02:52.702Z,4.18
2022-11-06T04:05:23.090Z,4.21
2022-11-06T04:08:07.688Z,4.13
2022-11-06T04:10:53.682Z,4.14
2022-11-06T04:13:40.595Z,3.94
2022-11-06T04:16:09.061Z,3.77
2022-11-06T04:18:36.631Z,3.76
2022-11-06T04:21:25.815Z,3.82
2022-11-06T04:24:24.917Z,3.87
2022-11-06T04:27:02.324Z,3.92
2022-11-06T04:29:39.091Z,3.92
2022-11-06T04:32:11.373Z,3.95
2022-11-06T04:34:44.547Z,3.91
2022-11-06T04:37:15.653Z,3.95
2022-11-06T04:39:51.359Z,3.92
2022-11-06T04:42:25.508Z,4.00
2022-11-06T04:44:57.598Z,3.97
2022-11-06T04:47:25.470Z,4.01
2022-11-06T04:49:54.504Z,4.02
2022-11-06T04:52:24.603Z,4.03
2022-11-06T04:54:52.833Z,3.95
2022-11-06T04:57:20.423Z,3.97
2022-11-06T04:59:48.027Z,3.95
2022-11-06T05:02:17.068Z,3.91
2022-11-06T05:04:45.625Z,3.92
2022-11-06T05:07:14.135Z,3.84
2022-11-06T05:09:41.913Z,3.87
2022-11-06T05:12:09.822Z,3.84
2022-11-06T05:14:37.518Z,3.81
2022-11-06T05:17:05.139Z,3.75
2022-11-06T05:19:34.204Z,3.69
2022-11-06T05:22:19.431Z,3.82
2022-11-06T05:24:47.025Z,3.71
2022-11-06T05:27:14.612Z,3.57
2022-11-06T05:29:42.293Z,3.56
2022-11-06T05:32:09.856Z,3.63
2022-11-06T05:34:38.841Z,3.64
2022-11-06T05:37:06.410Z,3.61
2022-11-06T05:39:37.736Z,3.62
2022-11-06T05:42:08.169Z,3.49
2022-11-06T05:44:35.925Z,3.44
2022-11-06T05:47:03.516Z,3.45
2022-11-06T05:49:31.109Z,3.46
2022-11-06T05:52:00.035Z,3.25
2022-11-06T05:54:27.808Z,3.11
2022-11-06T05:56:55.581Z,3.03
2022-11-06T05:59:23.156Z,3.08
2022-11-06T06:01:50.773Z,3.05
2022-11-06T06:04:18.478Z,3.09
2022-11-06T06:06:46.139Z,3.10
2022-11-06T06:09:15.094Z,2.97
2022-11-06T06:11:42.969Z,2.98
2022-11-06T06:14:10.643Z,2.98
2022-11-06T06:16:38.608Z,2.96
2022-11-06T06:19:06.163Z,2.97
2022-11-06T06:21:33.793Z,2.79
2022-11-06T06:24:01.436Z,2.89
2022-11-06T06:26:30.564Z,2.89
2022-11-06T06:28:58.179Z,2.80
2022-11-06T06:31:26.259Z,2.65
2022-11-06T06:33:53.861Z,2.81
2022-11-06T06:36:21.403Z,2.72
2022-11-06T06:38:49.029Z,2.55
2022-11-06T06:41:16.635Z,2.56
2022-11-06T06:43:48.911Z,2.54
2022-11-06T06:46:16.961Z,2.55
2022-11-06T06:48:44.667Z,2.56
2022-11-06T06:51:12.367Z,2.59
2022-11-06T06:53:40.146Z,2.41
2022-11-06T06:56:08.273Z,2.38
2022-11-06T06:58:35.856Z,2.47
2022-11-06T07:01:10.300Z,2.28
2022-11-06T07:03:38.167Z,2.19
2022-11-06T07:06:06.908Z,2.10
2022-11-06T07:08:34.602Z,2.11
2022-11-06T07:11:02.825Z,2.12
2022-11-06T07:13:35.550Z,2.14
2022-11-06T07:16:05.944Z,2.08
2022-11-06T07:18:33.573Z,2.16
2022-11-06T07:21:01.106Z,1.96
2022-11-06T07:23:28.699Z,1.97
2022-11-06T07:25:56.308Z,1.78
2022-11-06T07:28:24.185Z,1.70
2022-11-06T07:30:51.753Z,1.70
2022-11-06T07:33:20.649Z,1.69
2022-11-06T07:35:48.275Z,1.67
2022-11-06T07:38:15.990Z,1.64
2022-11-06T07:40:43.759Z,1.61
2022-11-06T07:43:12.319Z,1.90
2022-11-06T07:45:40.254Z,2.03
2022-11-06T07:48:07.936Z,2.25
2022-11-06T07:50:36.906Z,2.42
2022-11-06T07:53:04.808Z,2.18
2022-11-06T07:55:33.885Z,2.29
2022-11-06T07:58:03.163Z,2.39
2022-11-06T08:00:30.981Z,2.42
2022-11-06T08:02:58.504Z,2.40
2022-11-06T08:05:26.144Z,2.13
2022-11-06T08:07:58.564Z,2.49
2022-11-06T08:10:26.240Z,2.48
2022-11-06T08:12:53.770Z,2.55
2022-11-06T08:15:21.316Z,2.58
2022-11-06T08:17:48.948Z,2.61
2022-11-06T08:20:16.810Z,2.56
2022-11-06T08:22:44.361Z,2.55
2022-11-06T08:25:13.744Z,2.58
2022-11-06T08:27:41.420Z,2.81
2022-11-06T08:30:10.413Z,2.91
2022-11-06T08:32:38.015Z,2.76
2022-11-06T08:35:06.922Z,2.77
2022-11-06T08:37:34.595Z,2.78
2022-11-06T08:40:02.318Z,2.80
2022-11-06T08:42:31.669Z,2.72
2022-11-06T08:44:59.375Z,2.71
2022-11-06T08:47:27.080Z,2.76
2022-11-06T08:49:55.995Z,2.76
2022-11-06T08:52:23.575Z,2.75
2022-11-06T08:54:51.895Z,2.93
2022-11-06T08:57:19.475Z,2.97
2022-11-06T08:59:48.357Z,3.16
2022-11-06T09:02:16.609Z,3.20
2022-11-06T09:04:44.337Z,3.36
2022-11-06T09:07:11.905Z,3.30
2022-11-06T09:09:39.653Z,3.32
2022-11-06T09:12:08.128Z,3.32
2022-11-06T09:14:35.814Z,3.53
2022-11-06T09:17:05.001Z,3.56
2022-11-06T09:19:32.645Z,3.49
2022-11-06T09:22:00.220Z,3.58
2022-11-06T09:24:57.197Z,3.64
2022-11-06T09:27:15.365Z,3.59
2022-11-06T09:29:44.241Z,3.77
2022-11-06T09:32:13.210Z,3.67
2022-11-06T09:34:40.869Z,3.79
2022-11-06T09:37:08.427Z,3.80
2022-11-06T09:39:35.984Z,3.93
2022-11-06T09:42:10.274Z,4.06
2022-11-06T09:44:52.918Z,4.03
2022-11-06T09:47:24.962Z,4.19
2022-11-06T09:49:54.405Z,4.15
2022-11-06T09:52:29.229Z,4.05
2022-11-06T09:54:59.360Z,4.06
2022-11-06T09:57:30.900Z,4.18
2022-11-06T09:59:58.921Z,4.41
2022-11-06T10:02:30.558Z,4.48
2022-11-06T10:05:03.601Z,4.52
2022-11-06T10:07:34.360Z,4.64
2022-11-06T10:10:02.669Z,4.73
2022-11-06T10:12:36.672Z,4.79
2022-11-06T10:15:13.436Z,4.88
2022-11-06T10:17:50.451Z,4.93
2022-11-06T10:20:25.392Z,5.17
2022-11-06T10:23:01.978Z,5.36
2022-11-06T10:25:40.500Z,5.40
2022-11-06T10:28:17.126Z,5.39
2022-11-06T10:30:50.990Z,5.54
2022-11-06T10:33:30.536Z,5.68
2022-11-06T10:36:01.267Z,5.72
2022-11-06T10:38:31.266Z,5.77
2022-11-06T10:40:58.941Z,5.70
2022-11-06T10:43:32.085Z,5.84
2022-11-06T10:46:06.011Z,5.96
2022-11-06T10:48:41.636Z,6.35
2022-11-06T10:51:28.294Z,6.63
2022-11-06T10:54:04.570Z,6.99
2022-11-06T10:56:43.390Z,7.27
2022-11-06T10:59:11.102Z,7.39
2022-11-06T11:01:39.499Z,7.42
2022-11-06T11:04:08.690Z,7.52
2022-11-06T11:06:36.290Z,7.76
2022-11-06T11:09:03.892Z,7.93
2022-11-06T11:11:31.427Z,7.99
2022-11-06T11:14:15.938Z,8.08
2022-11-06T11:16:45.910Z,8.34
2022-11-06T11:19:25.637Z,8.46
2022-11-06T11:21:54.543Z,8.07
2022-11-06T11:24:22.445Z,8.01
2022-11-06T11:26:51.978Z,7.89
2022-11-06T11:29:24.595Z,7.82
2022-11-06T11:31:53.928Z,7.92
2022-11-06T11:34:24.605Z,7.88
2022-11-06T11:36:55.761Z,8.08
2022-11-06T11:39:26.164Z,8.28
2022-11-06T11:41:53.788Z,8.45
2022-11-06T11:44:21.697Z,8.38
2022-11-06T11:46:51.229Z,8.47
2022-11-06T11:49:30.793Z,8.60
2022-11-06T11:51:59.550Z,8.62
2022-11-06T11:54:29.404Z,8.63
2022-11-06T11:57:04.719Z,8.66
2022-11-06T11:59:37.569Z,8.65
2022-11-06T12:02:13.774Z,8.76
2022-11-06T12:04:44.875Z,8.80
2022-11-06T12:07:21.370Z,8.82
2022-11-06T12:09:49.055Z,8.96
2022-11-06T12:12:22.429Z,9.17
2022-11-06T12:15:05.247Z,9.19
2022-11-06T12:17:34.670Z,9.27
2022-11-06T12:20:07.510Z,9.32
2022-11-06T12:22:39.087Z,9.22
2022-11-06T12:25:11.396Z,8.89
2022-11-06T12:27:42.427Z,8.80
2022-11-06T12:30:13.020Z,8.71
2022-11-06T12:32:55.593Z,8.55
2022-11-06T12:35:27.427Z,8.60
2022-11-06T12:38:01.893Z,8.65
2022-11-06T12:40:30.815Z,8.70
2022-11-06T12:43:03.619Z,8.64
2022-11-06T12:45:39.289Z,8.63
2022-11-06T12:48:13.708Z,8.67
2022-11-06T12:50:46.439Z,8.70
2022-11-06T12:53:25.283Z,8.76
2022-11-06T12:55:56.082Z,8.82
2022-11-06T12:58:36.541Z,8.80
2022-11-06T13:01:10.353Z,8.77
2022-11-06T13:04:03.500Z,8.85
2022-11-06T13:06:57.210Z,9.02
2022-11-06T13:09:27.762Z,8.93
2022-11-06T13:12:00.844Z,8.92
2022-11-06T13:14:33.311Z,8.76
2022-11-06T13:17:05.399Z,8.84
2022-11-06T13:19:38.535Z,8.84
2022-11-06T13:22:20.877Z,8.88
2022-11-06T13:24:53.084Z,8.81
2022-11-06T13:27:27.487Z,8.83
2022-11-06T13:29:56.876Z,8.94
2022-11-06T13:32:25.993Z,8.77
2022-11-06T13:34:55.380Z,8.94
2022-11-06T13:37:36.116Z,9.04
2022-11-06T13:40:10.255Z,9.00
2022-11-06T13:42:41.348Z,9.01
2022-11-06T13:45:10.420Z,8.95
2022-11-06T13:47:44.868Z,9.08
2022-11-06T13:50:17.847Z,9.01
2022-11-06T13:52:50.868Z,8.96
2022-11-06T13:55:24.484Z,9.10
2022-11-06T13:58:24.078Z,9.04
2022-11-06T14:01:04.139Z,8.99
2022-11-06T14:03:56.729Z,8.99
2022-11-06T14:06:25.661Z,8.92
2022-11-06T14:08:56.283Z,8.79
2022-11-06T14:11:28.628Z,8.85
2022-11-06T14:14:01.630Z,8.90
2022-11-06T14:16:31.431Z,8.93
2022-11-06T14:19:01.891Z,8.84
2022-11-06T14:21:51.049Z,8.72
2022-11-06T14:24:41.396Z,8.68
2022-11-06T14:27:12.958Z,8.68
2022-11-06T14:30:05.404Z,8.72
2022-11-06T14:32:45.087Z,8.66
2022-11-06T14:35:50.505Z,8.72
2022-11-06T14:38:38.491Z,8.64
2022-11-06T14:41:51.466Z,8.54
2022-11-06T14:44:30.318Z,8.47
2022-11-06T14:47:00.000Z,8.49
2022-11-06T14:49:34.477Z,8.45
2022-11-06T14:52:03.808Z,8.38
2022-11-06T14:54:32.046Z,8.29
2022-11-06T14:56:59.689Z,8.35
2022-11-06T14:59:34.610Z,8.30
2022-11-06T15:02:06.324Z,8.23
2022-11-06T15:04:35.837Z,8.26
2022-11-06T15:07:11.865Z,8.23
2022-11-06T15:09:46.652Z,8.27
2022-11-06T15:12:14.312Z,8.29
2022-11-06T15:15:01.665Z,8.19
2022-11-06T15:17:33.378Z,8.14
2022-11-06T15:20:20.595Z,8.16
2022-11-06T15:22:51.802Z,8.16
2022-11-06T15:25:22.920Z,8.18
2022-11-06T15:27:58.187Z,8.22
2022-11-06T15:30:27.647Z,8.12
2022-11-06T15:32:55.549Z,8.04
2022-11-06T15:35:24.254Z,8.06
2022-11-06T15:37:53.604Z,8.06
2022-11-06T15:40:29.368Z,7.93
2022-11-06T15:42:58.161Z,8.02
2022-11-06T15:45:28.691Z,8.04
2022-11-06T15:47:58.680Z,7.96
2022-11-06T15:50:27.983Z,7.89
2022-11-06T15:52:55.846Z,7.86
2022-11-06T15:55:28.698Z,7.95
2022-11-06T15:58:06.791Z,7.97
2022-11-06T16:00:38.398Z,7.89
2022-11-06T16:03:08.036Z,7.88
2022-11-06T16:05:37.467Z,7.85
2022-11-06T16:08:07.174Z,7.90
2022-11-06T16:10:36.979Z,7.86
2022-11-06T16:13:05.793Z,7.84
2022-11-06T16:15:48.637Z,7.88
2022-11-06T16:18:19.253Z,7.82
2022-11-06T16:20:49.400Z,7.89
2022-11-06T16:23:20.101Z,7.88
2022-11-06T16:25:48.065Z,7.89
2022-11-06T16:28:19.927Z,7.95
2022-11-06T16:30:49.580Z,7.90
2022-11-06T16:33:22.721Z,7.85
2022-11-06T16:35:55.370Z,7.88
2022-11-06T16:38:46.614Z,7.90
2022-11-06T16:41:37.299Z,7.89
2022-11-06T16:44:27.612Z,7.81
2022-11-06T16:47:18.064Z,7.91
2022-11-06T16:49:52.887Z,7.87
2022-11-06T16:52:27.467Z,7.84
2022-11-06T16:54:57.392Z,7.84
2022-11-06T16:57:28.597Z,7.83
2022-11-06T16:59:58.702Z,7.88
2022-11-06T17:02:29.913Z,7.83
2022-11-06T17:05:16.145Z,7.85
2022-11-06T17:07:44.321Z,7.85
2022-11-06T17:10:37.943Z,7.83
2022-11-06T17:13:14.728Z,7.85
2022-11-06T17:15:42.771Z,7.76
2022-11-06T17:18:17.043Z,7.85
2022-11-06T17:20:52.030Z,7.82
2022-11-06T17:23:19.972Z,7.78
2022-11-06T17:25:48.194Z,7.79
2022-11-06T17:28:16.416Z,7.75
2022-11-06T17:30:44.118Z,7.72
2022-11-06T17:33:12.281Z,7.73
2022-11-06T17:35:41.570Z,7.76
2022-11-06T17:38:12.491Z,7.83
2022-11-06T17:40:40.316Z,7.81
2022-11-06T17:43:07.911Z,7.74
2022-11-06T17:45:35.606Z,7.77
2022-11-06T17:48:03.255Z,7.85
2022-11-06T17:50:31.650Z,7.82
2022-11-06T17:53:00.662Z,7.84
2022-11-06T17:55:28.958Z,7.81
2022-11-06T17:57:56.603Z,7.94
2022-11-06T18:00:24.269Z,7.99
2022-11-06T18:03:06.530Z,7.87
2022-11-06T18:05:35.917Z,8.00
2022-11-06T18:08:05.055Z,7.90
2022-11-06T18:10:32.669Z,7.85
2022-11-06T18:13:00.296Z,7.93
2022-11-06T18:15:27.927Z,7.95
2022-11-06T18:17:55.497Z,7.96
2022-11-06T18:20:23.031Z,8.04
2022-11-06T18:22:50.663Z,7.95
2022-11-06T18:25:19.852Z,7.87
2022-11-06T18:27:47.444Z,7.86
2022-11-06T18:30:15.116Z,7.74
2022-11-06T18:32:42.663Z,7.82
2022-11-06T18:35:10.520Z,7.73
2022-11-06T18:37:38.067Z,7.73
2022-11-06T18:40:06.472Z,7.78
2022-11-06T18:42:35.358Z,7.70
2022-11-06T18:45:02.965Z,7.80
2022-11-06T18:47:30.550Z,7.80
2022-11-06T18:49:58.309Z,7.78
2022-11-06T18:52:51.505Z,7.75
2022-11-06T18:55:13.535Z,7.70
2022-11-06T18:57:42.549Z,7.77
2022-11-06T19:00:13.177Z,7.79
2022-11-06T19:02:40.970Z,7.80
2022-11-06T19:05:08.977Z,7.82
2022-11-06T19:07:36.636Z,7.95
2022-11-06T19:10:04.787Z,7.85
2022-11-06T19:12:32.341Z,7.83
2022-11-06T19:15:01.418Z,7.88
2022-11-06T19:17:29.018Z,7.88
2022-11-06T19:19:56.559Z,7.93
2022-11-06T19:22:24.166Z,7.84
2022-11-06T19:24:51.754Z,7.83
2022-11-06T19:27:19.323Z,7.80
2022-11-06T19:29:46.890Z,7.69
2022-11-06T19:32:15.848Z,7.65
2022-11-06T19:34:43.378Z,7.65
2022-11-06T19:37:10.976Z,7.55
2022-11-06T19:39:38.650Z,7.54
2022-11-06T19:42:06.290Z,7.51
2022-11-06T19:44:33.933Z,7.40
2022-11-06T19:47:01.559Z,7.37
2022-11-06T19:49:33.061Z,7.43
2022-11-06T19:52:41.561Z,7.30
2022-11-06T19:54:48.263Z,7.30
2022-11-06T19:57:28.897Z,7.18
2022-11-06T19:59:57.436Z,7.29
2022-11-06T20:02:25.091Z,7.16
2022-11-06T20:04:54.093Z,7.28
2022-11-06T20:07:21.646Z,7.25
2022-11-06T20:09:49.211Z,7.20
2022-11-06T20:12:16.816Z,7.12
2022-11-06T20:14:45.847Z,7.14
2022-11-06T20:17:14.955Z,7.16
2022-11-06T20:19:42.602Z,7.11
2022-11-06T20:22:11.589Z,7.12
2022-11-06T20:24:40.875Z,7.06
2022-11-06T20:27:11.373Z,7.24
2022-11-06T20:29:39.336Z,7.25
2022-11-06T20:32:07.419Z,7.27
2022-11-06T20:34:34.970Z,7.34
2022-11-06T20:37:02.587Z,7.32
2022-11-06T20:39:31.930Z,7.44
2022-11-06T20:41:59.593Z,7.40
2022-11-06T20:44:27.130Z,7.48
2022-11-06T20:46:54.739Z,7.38
2022-11-06T20:49:22.500Z,7.41
2022-11-06T20:52:12.565Z,7.39
2022-11-06T20:54:43.691Z,7.40
2022-11-06T20:57:14.695Z,7.33
2022-11-06T20:59:42.332Z,7.40
2022-11-06T21:02:10.648Z,7.42
2022-11-06T21:04:38.480Z,7.37
2022-11-06T21:07:06.225Z,7.44
2022-11-06T21:09:34.037Z,7.52
2022-11-06T21:12:03.100Z,7.61
2022-11-06T21:14:30.948Z,7.71
2022-11-06T21:16:58.616Z,7.72
2022-11-06T21:19:26.190Z,7.64
2022-11-06T21:21:56.714Z,7.78
2022-11-06T21:24:24.441Z,7.77
2022-11-06T21:26:54.993Z,7.84
2022-11-06T21:29:24.721Z,7.78
2022-11-06T21:31:52.439Z,7.79
2022-11-06T21:34:20.273Z,7.76
2022-11-06T21:36:48.785Z,7.74
2022-11-06T21:39:18.570Z,7.76
2022-11-06T21:41:46.686Z,7.77
2022-11-06T21:44:15.501Z,7.77
2022-11-06T21:46:46.322Z,7.86
2022-11-06T21:49:14.427Z,7.95
2022-11-06T21:51:42.640Z,7.89
2022-11-06T21:54:29.301Z,8.03
2022-11-06T21:56:56.916Z,7.99
2022-11-06T21:59:26.734Z,8.02
2022-11-06T22:01:55.853Z,7.93
2022-11-06T22:04:23.551Z,8.03
2022-11-06T22:06:52.281Z,8.11
2022-11-06T22:09:24.887Z,8.13
2022-11-06T22:11:53.250Z,8.06
2022-11-06T22:14:20.836Z,8.00
2022-11-06T22:16:48.844Z,8.14
2022-11-06T22:19:18.554Z,7.98
2022-11-06T22:21:46.296Z,8.16
2022-11-06T22:24:14.846Z,8.20
2022-11-06T22:26:42.535Z,8.16
2022-11-06T22:29:12.093Z,8.24
2022-11-06T22:31:39.754Z,8.13
2022-11-06T22:34:07.389Z,8.15
2022-11-06T22:36:37.273Z,8.17
2022-11-06T22:39:05.531Z,8.19
2022-11-06T22:41:33.225Z,8.25
2022-11-06T22:44:01.253Z,8.12
2022-11-06T22:46:29.777Z,8.13
2022-11-06T22:48:57.869Z,8.11
2022-11-06T22:51:26.953Z,8.22
2022-11-06T22:53:56.348Z,8.05
2022-11-06T22:56:25.570Z,8.14
2022-11-06T22:58:54.671Z,8.02
2022-11-06T23:01:22.643Z,8.23
2022-11-06T23:03:50.325Z,8.21
2022-11-06T23:06:18.037Z,8.00
2022-11-06T23:08:47.158Z,8.25
2022-11-06T23:11:17.229Z,8.26
2022-11-06T23:13:45.196Z,8.26
2022-11-06T23:16:14.419Z,8.29
2022-11-06T23:18:42.148Z,8.35
2022-11-06T23:21:14.171Z,8.36
2022-11-06T23:23:42.385Z,8.39
2022-11-06T23:26:18.366Z,8.46
2022-11-06T23:28:47.594Z,8.46
2022-11-06T23:31:16.854Z,8.41
2022-11-06T23:33:45.495Z,8.44
2022-11-06T23:36:16.537Z,8.45
2022-11-06T23:38:45.395Z,8.39
2022-11-06T23:41:32.263Z,8.41
2022-11-06T23:44:27.934Z,8.39
2022-11-06T23:46:55.279Z,8.39
2022-11-06T23:49:23.673Z,8.31
2022-11-06T23:51:51.551Z,8.51
2022-11-06T23:54:19.547Z,8.50
2022-11-06T23:56:47.160Z,8.45
2022-11-06T23:59:16.020Z,8.56
